createdAt,value
2023-10-04T00:01:45.190Z,11.40
2023-10-04T00:06:47.764Z,11.30
2023-10-04T00:11:51.304Z,11.30
2023-10-04T00:16:55.952Z,11.20
2023-10-04T00:21:58.592Z,11.30
2023-10-04T00:27:00.214Z,11.40
2023-10-04T00:32:02.037Z,11.20
2023-10-04T00:37:03.670Z,11.00
2023-10-04T00:42:06.715Z,10.90
2023-10-04T00:47:08.547Z,10.90
2023-10-04T00:52:10.315Z,10.80
2023-10-04T00:57:12.920Z,10.80
2023-10-04T01:02:14.616Z,11.00
2023-10-04T01:07:17.743Z,10.90
2023-10-04T01:12:23.127Z,10.80
2023-10-04T01:17:29.144Z,10.80
2023-10-04T01:22:32.983Z,10.80
2023-10-04T01:27:37.515Z,11.00
2023-10-04T01:32:39.202Z,11.00
2023-10-04T01:37:40.959Z,10.90
2023-10-04T01:42:43.103Z,11.00
2023-10-04T01:47:45.181Z,11.00
2023-10-04T01:52:49.723Z,11.10
2023-10-04T01:57:51.329Z,11.00
2023-10-04T02:02:53.165Z,11.10
2023-10-04T02:07:55.634Z,11.10
2023-10-04T02:12:57.846Z,11.10
2023-10-04T02:18:27.640Z,11.20
2023-10-04T02:23:30.277Z,11.10
2023-10-04T02:28:34.359Z,11.20
2023-10-04T02:33:39.585Z,11.20
2023-10-04T02:38:45.101Z,11.20
2023-10-04T02:43:46.624Z,11.30
2023-10-04T02:48:50.023Z,11.20
2023-10-04T02:53:51.556Z,11.30
2023-10-04T02:58:53.188Z,11.30
2023-10-04T03:03:54.961Z,11.20
2023-10-04T03:08:57.374Z,11.30
2023-10-04T03:14:03.468Z,11.30
2023-10-04T03:19:05.432Z,11.30
2023-10-04T03:24:11.099Z,11.20
2023-10-04T03:29:12.690Z,11.30
2023-10-04T03:34:14.257Z,11.40
2023-10-04T03:39:17.415Z,11.50
2023-10-04T03:44:19.708Z,11.50
2023-10-04T03:49:22.780Z,11.60
2023-10-04T03:54:24.373Z,11.50
2023-10-04T03:59:27.575Z,11.40
2023-10-04T04:04:29.540Z,11.40
2023-10-04T04:09:31.179Z,11.40
2023-10-04T04:14:32.778Z,11.40
2023-10-04T04:19:34.830Z,11.40
2023-10-04T04:24:37.178Z,11.40
2023-10-04T04:29:39.817Z,11.50
2023-10-04T04:34:43.091Z,11.50
2023-10-04T04:39:44.820Z,11.50
2023-10-04T04:44:46.650Z,11.50
2023-10-04T04:49:49.476Z,11.50
2023-10-04T04:54:51.186Z,11.40
2023-10-04T04:59:56.382Z,11.40
2023-10-04T05:04:58.572Z,11.40
2023-10-04T05:10:00.542Z,11.20
2023-10-04T05:15:02.930Z,11.20
2023-10-04T05:20:05.793Z,11.10
2023-10-04T05:25:07.523Z,11.00
2023-10-04T05:30:14.594Z,11.00
2023-10-04T05:35:16.353Z,11.00
2023-10-04T05:40:18.832Z,11.10
2023-10-04T05:45:24.408Z,11.10
2023-10-04T05:50:26.529Z,11.10
2023-10-04T05:55:28.197Z,11.10
2023-10-04T06:00:32.420Z,11.10
2023-10-04T06:05:36.059Z,11.20
2023-10-04T06:10:37.872Z,11.10
2023-10-04T06:15:40.366Z,11.00
2023-10-04T06:20:42.330Z,11.10
2023-10-04T06:25:48.045Z,11.10
2023-10-04T06:30:51.196Z,11.30
2023-10-04T06:35:53.185Z,11.40
2023-10-04T06:40:54.838Z,11.50
2023-10-04T06:45:56.576Z,11.50
2023-10-04T06:50:58.333Z,11.60
2023-10-04T06:55:59.909Z,11.70
2023-10-04T07:01:02.618Z,11.80
2023-10-04T07:06:06.273Z,11.90
2023-10-04T07:11:07.903Z,12.10
2023-10-04T07:16:09.550Z,12.20
2023-10-04T07:21:11.876Z,12.40
2023-10-04T07:26:13.542Z,12.70
2023-10-04T07:31:15.286Z,12.70
2023-10-04T07:36:17.097Z,12.90
2023-10-04T07:41:18.792Z,13.30
2023-10-04T07:46:20.541Z,13.50
2023-10-04T07:51:22.295Z,13.70
2023-10-04T07:56:24.127Z,13.90
2023-10-04T08:01:26.083Z,14.00
2023-10-04T08:06:27.801Z,14.00
2023-10-04T08:11:30.678Z,14.30
2023-10-04T08:16:32.588Z,14.40
2023-10-04T08:21:34.539Z,14.70
2023-10-04T08:26:36.224Z,14.80
2023-10-04T08:31:38.128Z,14.90
2023-10-04T08:36:40.431Z,15.00
2023-10-04T08:41:42.439Z,15.20
2023-10-04T08:46:44.890Z,15.30
2023-10-04T08:51:51.680Z,15.50
2023-10-04T08:56:57.024Z,15.60
2023-10-04T09:01:59.027Z,15.60
2023-10-04T09:07:00.685Z,15.70
2023-10-04T09:12:02.530Z,15.70
2023-10-04T09:17:08.046Z,15.90
2023-10-04T09:22:10.314Z,16.00
2023-10-04T09:27:14.297Z,16.00
2023-10-04T09:32:17.617Z,16.30
2023-10-04T09:37:20.184Z,16.20
2023-10-04T09:42:24.252Z,16.40
2023-10-04T09:47:37.779Z,16.40
2023-10-04T09:52:39.943Z,16.40
2023-10-04T09:57:43.158Z,16.30
2023-10-04T10:02:49.487Z,16.50
2023-10-04T10:07:52.193Z,16.50
2023-10-04T10:12:54.462Z,16.60
2023-10-04T10:17:57.057Z,16.80
2023-10-04T10:23:02.127Z,16.80
2023-10-04T10:28:04.776Z,16.70
2023-10-04T10:33:07.974Z,16.90
2023-10-04T10:38:28.436Z,17.00
2023-10-04T10:43:30.682Z,16.90
2023-10-04T10:48:35.616Z,16.80
2023-10-04T10:53:37.412Z,16.90
2023-10-04T10:58:38.982Z,16.80
2023-10-04T11:03:42.819Z,16.70
2023-10-04T11:08:45.369Z,16.70
2023-10-04T11:13:49.475Z,16.80
2023-10-04T11:18:51.695Z,16.70
2023-10-04T11:23:53.947Z,16.90
2023-10-04T11:28:56.856Z,17.00
2023-10-04T11:34:00.305Z,17.10
2023-10-04T11:39:08.090Z,17.30
2023-10-04T11:44:09.917Z,17.40
2023-10-04T11:49:15.231Z,17.60
2023-10-04T11:54:17.713Z,17.40
2023-10-04T11:59:31.799Z,17.60
2023-10-04T12:04:37.926Z,17.60
2023-10-04T12:09:39.770Z,17.70
2023-10-04T12:14:41.712Z,17.70
2023-10-04T12:19:46.654Z,17.80
2023-10-04T12:24:49.931Z,17.70
2023-10-04T12:29:52.065Z,17.80
2023-10-04T12:34:54.046Z,17.80
2023-10-04T12:39:57.283Z,17.80
2023-10-04T12:44:59.814Z,17.80
2023-10-04T12:50:02.926Z,17.70
2023-10-04T12:55:06.799Z,17.80
2023-10-04T13:00:16.930Z,17.60
2023-10-04T13:05:19.874Z,17.70
2023-10-04T13:10:24.964Z,17.70
2023-10-04T13:15:26.693Z,17.70
2023-10-04T13:20:29.498Z,17.90
2023-10-04T13:25:31.250Z,17.80
2023-10-04T13:30:48.531Z,17.80
2023-10-04T13:35:52.588Z,17.70
2023-10-04T13:40:55.171Z,17.70
2023-10-04T13:45:56.892Z,17.70
2023-10-04T13:51:00.722Z,17.80
2023-10-04T13:56:06.238Z,17.70
2023-10-04T14:01:09.528Z,17.60
2023-10-04T14:06:14.106Z,17.60
2023-10-04T14:11:16.382Z,17.50
2023-10-04T14:16:20.194Z,17.50
2023-10-04T14:21:22.036Z,17.50
2023-10-04T14:26:23.704Z,17.60
2023-10-04T14:31:27.464Z,17.50
2023-10-04T14:36:29.282Z,17.60
2023-10-04T14:41:31.055Z,17.50
2023-10-04T14:46:33.590Z,17.50
2023-10-04T14:51:35.397Z,17.40
2023-10-04T14:56:37.037Z,17.30
2023-10-04T15:01:39.321Z,17.20
2023-10-04T15:06:41.877Z,17.20
2023-10-04T15:11:43.733Z,17.20
2023-10-04T15:16:45.701Z,17.10
2023-10-04T15:21:48.568Z,17.10
2023-10-04T15:26:50.741Z,17.10
2023-10-04T15:31:54.320Z,17.10
2023-10-04T15:36:56.045Z,17.00
2023-10-04T15:41:58.024Z,17.00
2023-10-04T15:46:59.942Z,16.90
2023-10-04T15:52:01.792Z,16.80
2023-10-04T15:57:04.964Z,16.80
2023-10-04T16:02:10.114Z,16.70
2023-10-04T16:07:11.817Z,16.60
2023-10-04T16:12:13.561Z,16.70
2023-10-04T16:17:15.304Z,16.70
2023-10-04T16:22:17.801Z,16.60
2023-10-04T16:27:20.945Z,16.60
2023-10-04T16:32:26.971Z,16.50
2023-10-04T16:37:30.092Z,16.40
2023-10-04T16:42:31.725Z,16.30
2023-10-04T16:47:33.413Z,16.10
2023-10-04T16:52:35.240Z,16.00
2023-10-04T16:57:37.116Z,15.80
2023-10-04T17:02:38.987Z,15.70
2023-10-04T17:07:41.483Z,15.50
2023-10-04T17:12:43.946Z,15.40
2023-10-04T17:17:46.681Z,15.20
2023-10-04T17:22:48.615Z,15.10
2023-10-04T17:27:50.385Z,14.90
2023-10-04T17:32:52.068Z,14.80
2023-10-04T17:37:53.883Z,14.60
2023-10-04T17:42:55.813Z,14.60
2023-10-04T17:47:57.886Z,14.40
2023-10-04T17:52:59.541Z,14.30
2023-10-04T17:58:01.254Z,14.30
2023-10-04T18:03:04.084Z,14.10
2023-10-04T18:08:06.580Z,14.10
2023-10-04T18:13:10.227Z,14.00
2023-10-04T18:18:12.110Z,14.00
2023-10-04T18:23:14.477Z,13.90
2023-10-04T18:28:16.198Z,13.90
2023-10-04T18:33:18.106Z,13.80
2023-10-04T18:38:19.863Z,13.80
2023-10-04T18:43:21.485Z,13.80
2023-10-04T18:48:23.208Z,13.70
2023-10-04T18:53:25.086Z,13.60
2023-10-04T18:58:28.113Z,13.60
2023-10-04T19:03:29.986Z,13.50
2023-10-04T19:08:32.399Z,13.40
2023-10-04T19:13:38.832Z,13.40
2023-10-04T19:18:41.687Z,13.30
2023-10-04T19:23:43.705Z,13.30
2023-10-04T19:28:45.404Z,13.20
2023-10-04T19:33:47.151Z,13.20
2023-10-04T19:38:53.375Z,13.20
2023-10-04T19:43:55.091Z,13.10
2023-10-04T19:48:58.956Z,13.10
2023-10-04T19:54:01.570Z,13.10
2023-10-04T19:59:03.299Z,13.10
2023-10-04T20:04:05.264Z,13.00
2023-10-04T20:09:07.412Z,13.20
2023-10-04T20:14:09.749Z,13.20
2023-10-04T20:19:11.797Z,13.10
2023-10-04T20:24:13.619Z,13.00
2023-10-04T20:29:15.874Z,13.10
2023-10-04T20:34:17.628Z,13.00
2023-10-04T20:39:20.006Z,12.90
2023-10-04T20:44:21.825Z,12.80
2023-10-04T20:49:25.859Z,12.70
2023-10-04T20:54:27.640Z,12.70
2023-10-04T20:59:30.323Z,12.80
2023-10-04T21:04:32.446Z,12.80
2023-10-04T21:09:34.581Z,12.70
2023-10-04T21:14:36.626Z,12.70
2023-10-04T21:19:39.971Z,12.70
2023-10-04T21:24:47.210Z,12.60
2023-10-04T21:29:49.970Z,12.60
2023-10-04T21:34:51.699Z,12.50
2023-10-04T21:39:53.298Z,12.50
2023-10-04T21:44:56.611Z,12.50
2023-10-04T21:50:00.195Z,12.50
2023-10-04T21:55:01.991Z,12.50
2023-10-04T22:00:03.864Z,12.40
2023-10-04T22:05:07.983Z,12.40
2023-10-04T22:10:11.804Z,12.40
2023-10-04T22:15:14.293Z,12.60
2023-10-04T22:20:18.020Z,12.70
2023-10-04T22:25:20.145Z,12.80
2023-10-04T22:30:23.373Z,12.90
2023-10-04T22:35:26.056Z,12.90
2023-10-04T22:40:27.824Z,12.90
2023-10-04T22:45:29.771Z,12.90
2023-10-04T22:50:31.614Z,13.00
2023-10-04T22:55:35.395Z,13.10
2023-10-04T23:00:39.809Z,13.10
2023-10-04T23:05:44.012Z,13.10
2023-10-04T23:10:48.167Z,13.20
2023-10-04T23:15:49.899Z,13.20
2023-10-04T23:20:57.327Z,13.20
2023-10-04T23:25:59.170Z,13.20
2023-10-04T23:31:03.004Z,13.20
2023-10-04T23:36:08.061Z,13.20
2023-10-04T23:41:12.705Z,13.10
2023-10-04T23:46:19.742Z,13.10
2023-10-04T23:51:23.353Z,13.10
2023-10-04T23:56:31.638Z,13.20
